Tropical Cyclones
[Index]
Main Index Home Page Stock Weather Photos Extreme Storms Discussion Storm News and Storm Chasing Reports Tropical Cyclones / Hurricanes / Typhoons Weather Data and Links Wild Fires / Bushfires Weather Observation Techniques Weather Picture Catalogue Tornado Pictures and Reports Stock Video Footage and DVDs for sale
Season 1980-1981 Tropical Cyclone FELIX Track Map
Season 1980-1981 Summaries: [BoM-AU] [JTWC-AU] [JTWC-SIO] [JTWC-SPAC] [JTWC-SH]
<<- Previous TC | BoM 1980-1981 Season | Next TC ->>

click for intensity scale information  Lat/long Grid: Show Hide

 Date Labels: Show Hide

Bureau of Meteorology Tropical Cyclone Data

Name: FELIX
Number: 613 / 198081_06

22 Dec 1980 00:00 UTC to 31 Dec 1980 00:00 UTC

    date/time    lat    long    hPa   cat  kts
1980-12-22 00   10.6   127.0   1002                     
1980-12-22 06   10.7   126.0   1000                     
1980-12-22 12   10.7   125.0    998                     
1980-12-22 18   10.7   123.9    996                     
1980-12-23 00   10.5   122.8    994    1                
1980-12-23 06   10.6   121.7    991    1                
1980-12-23 12   10.9   120.9    987    1                
1980-12-23 18   11.2   120.1    984    2                
1980-12-24 00   11.5   119.4    980    2                
1980-12-24 06   11.7   118.5    975    2                
1980-12-24 12   12.0   117.7    970    3                
1980-12-24 18   12.3   116.8    965    3                
1980-12-25 00   12.8   116.0    960    3                
1980-12-25 06   13.3   115.1    955    4                
1980-12-25 12   13.9   114.2    950    4                
1980-12-25 18   14.3   113.2    945    4                
1980-12-26 00   14.7   112.2    940    4                
1980-12-26 06   14.8   111.1    940    4                
1980-12-26 12   15.0   110.4    941    4                
1980-12-26 18   15.2   109.4    942    4                
1980-12-27 00   15.5   108.5    942    4                
1980-12-27 06   15.9   107.6    945    4                
1980-12-27 12   16.3   106.8    948    4                
1980-12-27 18   17.0   106.0    951    4                
1980-12-28 00   17.8   105.2    955    4                
1980-12-28 06   18.7   104.9    951    4                
1980-12-28 12   19.6   104.5    967    3                
1980-12-28 18   20.6   104.3    973    2                
1980-12-29 00   21.5   104.4    980    2                
1980-12-29 06   22.6   104.9    994    1                
1980-12-29 12   23.1   105.4    996                     
1980-12-29 18   23.5   106.0    998                     
1980-12-30 00   23.8   106.8   1000                     
1980-12-30 06   23.4   107.6   1002                     
1980-12-30 12   22.8   108.2   1003                     
1980-12-30 18   21.6   108.3   1004                     
1980-12-31 00   20.6   109.1   1005                     
Winds are 10-min average.

Tropical cyclone tracks developed by Michael Bath using data from the Bureau of Meteorology and Google Maps.


[Australian Severe Weather index] [Copyright Notice] [Email Contacts] [Search This Site] [Privacy Policy]
Document: tropical_cyclone_felix.htm Updated: 30 May 2013